Time;durP1;ratioP1;P1;durP2;ratioP2;P2;SDS_P1;SDS_P2;PMS_P1;PMS_P2;Temp;Humidity;BMP_temperature;BMP_pressure;BME280_temperature;BME280_humidity;BME280_pressure;Samples;Min_cycle;Max_cycle;Signal;HPM_P1;HPM_P2
2022/01/17 00:00:20;;;;;;;10.80;1.90;;;;;;;;;;5072634;28;20182;-65
2022/01/17 00:02:50;;;;;;;15.13;2.42;;;;;;;;;;5090129;28;20039;-65
2022/01/17 00:05:17;;;;;;;9.52;2.00;;;;;;;;;;5090881;28;20043;-65
2022/01/17 00:07:43;;;;;;;10.65;1.85;;;;;;;;;;5072224;28;20159;-65
2022/01/17 00:10:15;;;;;;;10.95;2.58;;;;;;;;;;5090120;28;20036;-65
2022/01/17 00:12:45;;;;;;;12.50;2.00;;;;;;;;;;5089678;28;20040;-65
2022/01/17 00:15:21;;;;;;;12.93;2.70;;;;;;;;;;5092252;28;20039;-64
2022/01/17 00:17:57;;;;;;;13.02;2.63;;;;;;;;;;5093521;28;20040;-66
2022/01/17 00:20:27;;;;;;;9.82;2.28;;;;;;;;;;5094162;28;20048;-66
2022/01/17 00:22:53;;;;;;;11.30;2.20;;;;;;;;;;5093585;28;20055;-65
2022/01/17 00:25:19;;;;;;;9.05;1.83;;;;;;;;;;5094345;28;20028;-64
2022/01/17 00:27:47;;;;;;;13.30;2.35;;;;;;;;;;5093921;28;20040;-65
2022/01/17 00:30:13;;;;;;;13.90;2.20;;;;;;;;;;5094045;28;20048;-65
2022/01/17 00:32:42;;;;;;;12.25;2.05;;;;;;;;;;5093590;28;20461;-65
2022/01/17 00:35:08;;;;;;;8.60;2.15;;;;;;;;;;5093867;28;20058;-65
2022/01/17 00:37:34;;;;;;;13.48;3.50;;;;;;;;;;5093694;28;20102;-65
2022/01/17 00:40:00;;;;;;;8.70;2.05;;;;;;;;;;5094396;28;20080;-65
2022/01/17 00:42:26;;;;;;;10.95;2.28;;;;;;;;;;5093450;28;20040;-65
2022/01/17 00:45:28;;;;;;;11.27;2.50;;;;;;;;;;5093634;28;20084;-64
2022/01/17 00:47:58;;;;;;;11.80;2.28;;;;;;;;;;5093885;28;20488;-64
2022/01/17 00:50:27;;;;;;;11.80;2.00;;;;;;;;;;5094769;28;20168;-65
2022/01/17 00:52:53;;;;;;;10.35;2.10;;;;;;;;;;5093875;28;20043;-66
2022/01/17 00:55:19;;;;;;;17.48;3.13;;;;;;;;;;5094084;28;20044;-66
2022/01/17 00:57:46;;;;;;;12.90;2.38;;;;;;;;;;5058487;28;20052;-65
2022/01/17 01:00:12;;;;;;;12.25;2.65;;;;;;;;;;5093674;28;20047;-64
2022/01/17 01:02:39;;;;;;;12.55;2.35;;;;;;;;;;5093552;28;20083;-65
2022/01/17 01:05:06;;;;;;;15.40;2.53;;;;;;;;;;5093939;28;20039;-64
2022/01/17 01:07:32;;;;;;;10.60;2.15;;;;;;;;;;5093372;28;20043;-64
2022/01/17 01:10:10;;;;;;;9.48;2.10;;;;;;;;;;5074794;28;20032;-65
2022/01/17 01:12:40;;;;;;;11.02;2.03;;;;;;;;;;5092627;28;20055;-66
2022/01/17 01:15:11;;;;;;;12.38;2.38;;;;;;;;;;5095049;28;20040;-66
2022/01/17 01:17:49;;;;;;;10.80;2.28;;;;;;;;;;5112110;28;20046;-66
2022/01/17 01:28:37;;;;;;;14.77;2.67;;;;;;;;;;5113672;28;20522;-65
2022/01/17 01:31:09;;;;;;;8.20;2.50;;;;;;;;;;5113141;28;20499;-65
2022/01/17 01:33:39;;;;;;;13.70;2.90;;;;;;;;;;5113320;28;20036;-66
2022/01/17 01:36:12;;;;;;;15.98;2.45;;;;;;;;;;5113823;28;20453;-65
2022/01/17 01:38:40;;;;;;;12.17;3.07;;;;;;;;;;5113911;28;20043;-66
2022/01/17 01:41:06;;;;;;;13.07;2.28;;;;;;;;;;5094707;28;20123;-66
2022/01/17 01:43:32;;;;;;;17.65;2.63;;;;;;;;;;5113319;28;20035;-65
2022/01/17 01:46:01;;;;;;;10.85;2.55;;;;;;;;;;5113304;28;20040;-66
2022/01/17 01:48:27;;;;;;;11.80;2.75;;;;;;;;;;5113643;28;20039;-65
2022/01/17 01:50:54;;;;;;;11.55;2.50;;;;;;;;;;5113407;28;20035;-65
2022/01/17 01:53:22;;;;;;;15.35;2.58;;;;;;;;;;5077712;28;20230;-66
2022/01/17 01:55:50;;;;;;;14.02;2.17;;;;;;;;;;5078140;28;20039;-66
2022/01/17 01:58:17;;;;;;;12.13;2.55;;;;;;;;;;5113350;28;20118;-66
2022/01/17 02:00:43;;;;;;;15.88;3.03;;;;;;;;;;5113035;28;20043;-65
2022/01/17 02:03:09;;;;;;;11.88;2.42;;;;;;;;;;5113098;28;20479;-66
2022/01/17 02:05:35;;;;;;;13.32;2.22;;;;;;;;;;5113293;28;20085;-65
2022/01/17 02:08:01;;;;;;;8.38;2.17;;;;;;;;;;5112999;28;20039;-66
2022/01/17 02:10:27;;;;;;;14.05;3.30;;;;;;;;;;5113004;28;20040;-64
2022/01/17 02:12:53;;;;;;;12.43;2.65;;;;;;;;;;5112531;28;20075;-64
2022/01/17 02:15:19;;;;;;;17.40;2.90;;;;;;;;;;5094459;28;20091;-64
2022/01/17 02:17:53;;;;;;;18.40;2.65;;;;;;;;;;5113013;28;20047;-64
2022/01/17 02:20:22;;;;;;;15.00;2.85;;;;;;;;;;5112951;28;20039;-64
2022/01/17 02:22:48;;;;;;;12.82;2.40;;;;;;;;;;5112113;28;20411;-64
2022/01/17 02:25:14;;;;;;;11.00;2.28;;;;;;;;;;5112306;28;20046;-65
2022/01/17 02:27:40;;;;;;;14.88;2.75;;;;;;;;;;5112619;28;20380;-64
2022/01/17 02:30:07;;;;;;;14.77;2.72;;;;;;;;;;5112534;28;20032;-65
2022/01/17 02:32:33;;;;;;;14.80;2.90;;;;;;;;;;5111833;28;20140;-64
2022/01/17 02:35:18;;;;;;;14.02;2.35;;;;;;;;;;5093779;28;20119;-64
2022/01/17 02:37:45;;;;;;;11.80;2.90;;;;;;;;;;5111447;28;20132;-64
2022/01/17 02:40:11;;;;;;;12.43;2.70;;;;;;;;;;5111894;28;20495;-64
2022/01/17 02:42:37;;;;;;;14.60;2.33;;;;;;;;;;5111677;28;20040;-64
2022/01/17 02:47:55;;;;;;;15.50;2.72;;;;;;;;;;5093524;28;20048;-64
2022/01/17 02:50:21;;;;;;;11.27;2.25;;;;;;;;;;5111897;28;20027;-66
2022/01/17 02:52:47;;;;;;;13.23;2.67;;;;;;;;;;5110899;28;20044;-65
2022/01/17 02:55:13;;;;;;;11.73;3.22;;;;;;;;;;5111636;28;20053;-65
2022/01/17 02:57:40;;;;;;;12.82;2.67;;;;;;;;;;5111680;28;20115;-65
2022/01/17 03:00:09;;;;;;;13.55;2.83;;;;;;;;;;5111705;28;20040;-65
2022/01/17 03:02:35;;;;;;;14.52;3.15;;;;;;;;;;5111058;28;20039;-65
2022/01/17 03:05:02;;;;;;;14.10;2.63;;;;;;;;;;5111286;28;20053;-65
2022/01/17 03:07:27;;;;;;;13.90;2.80;;;;;;;;;;5111228;28;20050;-65
2022/01/17 03:10:06;;;;;;;10.15;2.13;;;;;;;;;;5111431;28;20040;-65
2022/01/17 03:12:32;;;;;;;11.85;2.42;;;;;;;;;;5110914;28;20044;-65
2022/01/17 03:14:58;;;;;;;15.25;2.67;;;;;;;;;;5111212;28;20040;-67
2022/01/17 03:17:24;;;;;;;12.90;2.83;;;;;;;;;;5111133;28;20441;-65
2022/01/17 03:19:50;;;;;;;13.98;2.28;;;;;;;;;;5092905;28;20067;-65
2022/01/17 03:22:16;;;;;;;17.95;2.70;;;;;;;;;;5111081;28;20472;-66
2022/01/17 03:24:42;;;;;;;12.68;2.50;;;;;;;;;;5111007;28;20043;-65
2022/01/17 03:27:08;;;;;;;13.13;2.58;;;;;;;;;;5111265;28;20042;-65
2022/01/17 03:29:35;;;;;;;11.70;2.58;;;;;;;;;;5111261;28;20042;-66
2022/01/17 03:32:01;;;;;;;12.98;3.35;;;;;;;;;;5075927;28;20072;-65
2022/01/17 03:34:27;;;;;;;13.52;2.30;;;;;;;;;;5110982;28;20484;-66
2022/01/17 03:36:53;;;;;;;11.70;2.65;;;;;;;;;;5111190;28;20035;-65
2022/01/17 03:39:19;;;;;;;14.32;2.33;;;;;;;;;;5111011;28;20045;-65
2022/01/17 03:41:45;;;;;;;18.02;2.72;;;;;;;;;;5110504;28;20078;-65
2022/01/17 03:44:11;;;;;;;13.05;3.10;;;;;;;;;;5110940;28;20040;-65
2022/01/17 03:46:37;;;;;;;11.50;2.53;;;;;;;;;;5092578;28;20047;-66
2022/01/17 03:49:03;;;;;;;14.52;2.50;;;;;;;;;;5109786;28;20531;-64
2022/01/17 03:51:30;;;;;;;14.15;2.20;;;;;;;;;;5110176;28;20047;-65
2022/01/17 03:53:56;;;;;;;12.15;3.13;;;;;;;;;;5111021;28;20256;-65
2022/01/17 03:56:22;;;;;;;11.57;2.72;;;;;;;;;;5110956;28;20050;-65
2022/01/17 03:58:49;;;;;;;14.05;2.45;;;;;;;;;;5111118;28;20062;-65
2022/01/17 04:01:15;;;;;;;21.40;3.20;;;;;;;;;;5110391;28;20403;-66
2022/01/17 04:03:42;;;;;;;15.02;2.67;;;;;;;;;;5110477;28;20040;-65
2022/01/17 04:06:08;;;;;;;15.98;2.85;;;;;;;;;;5110734;28;20077;-65
2022/01/17 04:08:34;;;;;;;14.18;2.28;;;;;;;;;;5111067;28;20053;-65
2022/01/17 04:11:00;;;;;;;11.95;2.72;;;;;;;;;;5110178;28;20043;-64
2022/01/17 04:13:26;;;;;;;11.48;2.08;;;;;;;;;;5110400;28;20039;-65
2022/01/17 04:15:52;;;;;;;12.15;2.50;;;;;;;;;;5110361;28;20031;-65
2022/01/17 04:18:23;;;;;;;12.07;2.53;;;;;;;;;;5110378;28;20035;-65
2022/01/17 04:20:49;;;;;;;10.45;2.50;;;;;;;;;;5110802;28;20522;-65
2022/01/17 04:23:17;;;;;;;13.05;2.45;;;;;;;;;;5110138;28;20035;-65
2022/01/17 04:25:44;;;;;;;13.00;2.45;;;;;;;;;;5110764;28;20457;-65
2022/01/17 04:28:10;;;;;;;9.88;2.67;;;;;;;;;;5111012;28;20067;-65
2022/01/17 04:30:37;;;;;;;10.02;2.63;;;;;;;;;;5105738;28;20035;-65
2022/01/17 04:33:03;;;;;;;9.52;2.63;;;;;;;;;;5109951;28;20075;-65
2022/01/17 04:35:30;;;;;;;11.15;2.67;;;;;;;;;;5110651;28;20062;-66
2022/01/17 04:38:04;;;;;;;11.80;2.30;;;;;;;;;;5110627;28;20032;-65
2022/01/17 04:40:38;;;;;;;14.02;2.80;;;;;;;;;;5109755;28;20046;-66
2022/01/17 04:43:12;;;;;;;9.85;2.53;;;;;;;;;;5108418;28;20039;-66
2022/01/17 04:45:38;;;;;;;12.10;2.25;;;;;;;;;;5091553;28;20083;-65
2022/01/17 04:48:05;;;;;;;10.60;2.10;;;;;;;;;;5109223;28;20035;-66
2022/01/17 04:50:31;;;;;;;12.13;2.78;;;;;;;;;;5109050;28;20046;-66
2022/01/17 04:53:00;;;;;;;19.38;2.53;;;;;;;;;;5097215;28;20043;-65
2022/01/17 04:55:26;;;;;;;9.75;2.70;;;;;;;;;;5070763;28;20054;-64
2022/01/17 04:57:53;;;;;;;12.32;2.45;;;;;;;;;;5088795;28;20040;-65
2022/01/17 05:00:21;;;;;;;16.90;1.98;;;;;;;;;;5089213;28;20044;-65
2022/01/17 05:02:47;;;;;;;10.95;2.42;;;;;;;;;;5091834;28;20051;-65
2022/01/17 05:05:13;;;;;;;14.98;2.45;;;;;;;;;;5092477;28;20040;-65
2022/01/17 05:07:40;;;;;;;13.43;2.10;;;;;;;;;;5092575;28;20040;-65
2022/01/17 05:10:08;;;;;;;12.20;2.38;;;;;;;;;;5093096;28;20044;-65
2022/01/17 05:12:34;;;;;;;13.70;2.78;;;;;;;;;;5074597;28;20516;-65
2022/01/17 05:15:00;;;;;;;13.10;2.65;;;;;;;;;;5093328;28;20046;-64
2022/01/17 05:19:57;;;;;;;14.45;2.15;;;;;;;;;;5092725;28;20040;-63
2022/01/17 05:22:25;;;;;;;10.35;2.17;;;;;;;;;;5074465;28;20043;-65
2022/01/17 05:24:51;;;;;;;11.10;3.25;;;;;;;;;;5093026;28;20066;-64
2022/01/17 05:27:17;;;;;;;8.57;2.88;;;;;;;;;;5093047;28;20036;-63
2022/01/17 05:29:43;;;;;;;10.77;2.60;;;;;;;;;;5093091;28;20082;-65
2022/01/17 05:32:09;;;;;;;13.40;2.42;;;;;;;;;;5092570;28;20054;-64
2022/01/17 05:34:40;;;;;;;14.07;3.13;;;;;;;;;;5093027;28;20044;-65
2022/01/17 05:37:06;;;;;;;14.05;2.55;;;;;;;;;;5090371;28;20144;-65
2022/01/17 05:39:36;;;;;;;12.70;2.85;;;;;;;;;;5091550;28;20051;-65
2022/01/17 05:42:02;;;;;;;10.60;3.03;;;;;;;;;;5080775;28;20043;-64
2022/01/17 05:44:28;;;;;;;15.25;3.03;;;;;;;;;;5098280;28;20036;-65
2022/01/17 05:46:54;;;;;;;12.18;2.88;;;;;;;;;;5100598;28;20043;-65
2022/01/17 05:49:20;;;;;;;11.40;2.47;;;;;;;;;;5080904;28;20032;-65
2022/01/17 05:51:46;;;;;;;13.52;2.88;;;;;;;;;;5091912;28;20040;-64
2022/01/17 05:54:12;;;;;;;10.95;2.67;;;;;;;;;;5092937;28;20032;-65
2022/01/17 05:56:38;;;;;;;17.65;3.63;;;;;;;;;;5074200;28;20090;-65
2022/01/17 05:59:04;;;;;;;15.30;3.10;;;;;;;;;;5093058;28;20040;-65
2022/01/17 06:01:30;;;;;;;13.57;3.00;;;;;;;;;;5091660;28;20036;-65
2022/01/17 06:03:56;;;;;;;9.38;3.33;;;;;;;;;;5101421;28;20043;-67
2022/01/17 06:06:22;;;;;;;16.83;3.58;;;;;;;;;;5092217;28;20036;-66
2022/01/17 06:08:48;;;;;;;13.32;3.60;;;;;;;;;;5099948;28;20512;-65
2022/01/17 06:11:14;;;;;;;9.85;3.22;;;;;;;;;;5097739;28;20105;-63
2022/01/17 06:13:40;;;;;;;13.90;3.55;;;;;;;;;;5100046;28;20392;-65
2022/01/17 06:16:06;;;;;;;16.90;3.70;;;;;;;;;;5105630;28;20108;-64
2022/01/17 06:18:33;;;;;;;13.82;3.88;;;;;;;;;;5100345;28;20276;-64
2022/01/17 06:20:59;;;;;;;11.27;4.68;;;;;;;;;;5096887;28;20040;-66
2022/01/17 06:23:28;;;;;;;12.82;3.90;;;;;;;;;;5097184;28;20051;-65
2022/01/17 06:25:57;;;;;;;13.95;3.70;;;;;;;;;;5071495;28;20052;-65
2022/01/17 06:28:27;;;;;;;16.50;4.07;;;;;;;;;;5092232;28;20036;-65
2022/01/17 06:30:53;;;;;;;11.90;4.00;;;;;;;;;;5074303;28;20405;-66
2022/01/17 06:33:22;;;;;;;15.52;4.97;;;;;;;;;;5095898;28;20122;-65
2022/01/17 06:35:51;;;;;;;12.95;3.75;;;;;;;;;;5111324;28;20032;-65
2022/01/17 06:38:18;;;;;;;15.40;4.80;;;;;;;;;;5096805;28;20526;-65
2022/01/17 06:40:44;;;;;;;14.98;5.30;;;;;;;;;;5111787;28;20042;-65
2022/01/17 06:43:10;;;;;;;16.50;5.07;;;;;;;;;;5111637;28;20039;-64
2022/01/17 06:45:37;;;;;;;15.32;5.82;;;;;;;;;;5112093;28;20051;-64
2022/01/17 06:48:03;;;;;;;19.67;5.50;;;;;;;;;;5111779;28;20039;-63
2022/01/17 06:50:38;;;;;;;19.35;6.18;;;;;;;;;;5112037;28;20068;-65
2022/01/17 06:53:09;;;;;;;19.67;6.65;;;;;;;;;;5093196;28;20547;-65
2022/01/17 06:55:38;;;;;;;17.08;6.00;;;;;;;;;;5111611;28;20354;-66
2022/01/17 06:58:04;;;;;;;25.52;7.13;;;;;;;;;;5111582;28;20047;-66
2022/01/17 07:00:33;;;;;;;14.65;6.35;;;;;;;;;;5111199;28;20424;-65
2022/01/17 07:02:59;;;;;;;14.38;6.78;;;;;;;;;;5110736;28;20042;-66
2022/01/17 07:05:28;;;;;;;19.80;7.82;;;;;;;;;;5111583;28;20472;-65
2022/01/17 07:07:55;;;;;;;19.77;6.75;;;;;;;;;;5111517;28;20122;-66
2022/01/17 07:10:29;;;;;;;19.15;6.72;;;;;;;;;;5111449;28;20036;-66
2022/01/17 07:12:56;;;;;;;17.98;7.53;;;;;;;;;;5111855;28;20040;-65
2022/01/17 07:15:28;;;;;;;17.70;7.40;;;;;;;;;;5107071;28;20036;-65
2022/01/17 07:17:57;;;;;;;21.60;8.18;;;;;;;;;;5100909;28;20035;-65
2022/01/17 07:20:26;;;;;;;17.70;7.55;;;;;;;;;;5111017;28;20059;-65
2022/01/17 07:22:55;;;;;;;25.58;8.35;;;;;;;;;;5110800;28;20036;-65
2022/01/17 07:25:21;;;;;;;18.77;7.50;;;;;;;;;;5095387;28;20094;-66
2022/01/17 07:27:51;;;;;;;25.70;8.00;;;;;;;;;;5088581;28;20044;-64
2022/01/17 07:30:18;;;;;;;18.95;7.68;;;;;;;;;;5079393;28;20040;-64
2022/01/17 07:32:48;;;;;;;19.52;7.40;;;;;;;;;;5089483;28;20055;-64
2022/01/17 07:35:15;;;;;;;18.38;7.43;;;;;;;;;;5089386;28;20067;-65
2022/01/17 07:37:41;;;;;;;22.73;8.10;;;;;;;;;;5073005;28;20040;-65
2022/01/17 07:40:34;;;;;;;21.27;7.80;;;;;;;;;;5090230;28;20474;-65
2022/01/17 07:43:00;;;;;;;22.05;7.15;;;;;;;;;;5071988;28;20044;-65
2022/01/17 07:45:32;;;;;;;24.77;8.13;;;;;;;;;;5088291;28;20167;-65
2022/01/17 07:48:12;;;;;;;22.90;8.32;;;;;;;;;;5090798;28;20046;-65
2022/01/17 07:50:43;;;;;;;20.80;7.47;;;;;;;;;;5090462;28;20036;-65
2022/01/17 07:53:10;;;;;;;16.35;7.88;;;;;;;;;;5096290;28;20591;-66
2022/01/17 07:55:44;;;;;;;19.77;7.75;;;;;;;;;;5087552;28;20409;-66
2022/01/17 07:58:10;;;;;;;16.58;7.45;;;;;;;;;;5089423;28;20484;-66
2022/01/17 08:00:43;;;;;;;18.40;7.38;;;;;;;;;;5085724;28;20476;-63
2022/01/17 08:03:09;;;;;;;20.58;7.97;;;;;;;;;;5084842;28;20044;-65
2022/01/17 08:05:35;;;;;;;16.40;6.75;;;;;;;;;;5067571;28;20392;-65
2022/01/17 08:08:01;;;;;;;21.17;8.18;;;;;;;;;;5085944;28;20055;-65
2022/01/17 08:10:28;;;;;;;21.77;7.70;;;;;;;;;;5086051;28;20033;-64
2022/01/17 08:12:58;;;;;;;19.20;7.18;;;;;;;;;;5067823;28;20670;-64
2022/01/17 08:15:24;;;;;;;30.55;8.68;;;;;;;;;;5089908;28;20040;-65
2022/01/17 08:17:50;;;;;;;18.92;6.72;;;;;;;;;;5090027;28;20119;-64
2022/01/17 08:20:20;;;;;;;24.42;6.85;;;;;;;;;;5090581;28;20448;-66
2022/01/17 08:22:46;;;;;;;21.92;7.45;;;;;;;;;;5089902;28;20040;-66
2022/01/17 08:25:13;;;;;;;20.10;6.32;;;;;;;;;;5072111;28;20097;-66
2022/01/17 08:27:39;;;;;;;20.08;6.47;;;;;;;;;;5090428;28;20127;-65
2022/01/17 08:30:05;;;;;;;24.23;7.10;;;;;;;;;;5090064;28;20036;-65
2022/01/17 08:32:32;;;;;;;22.88;7.47;;;;;;;;;;5089765;28;20044;-63
2022/01/17 08:34:58;;;;;;;19.60;6.40;;;;;;;;;;5090256;28;20062;-63
2022/01/17 08:37:26;;;;;;;21.35;5.78;;;;;;;;;;5093812;28;20122;-64
2022/01/17 08:39:53;;;;;;;21.00;6.03;;;;;;;;;;5093265;28;20048;-63
2022/01/17 08:42:19;;;;;;;20.35;5.45;;;;;;;;;;5093295;28;20382;-65
2022/01/17 08:44:50;;;;;;;19.55;6.00;;;;;;;;;;5075491;28;20052;-64
2022/01/17 08:47:20;;;;;;;19.30;5.28;;;;;;;;;;5093743;28;20036;-65
2022/01/17 08:49:48;;;;;;;24.52;5.68;;;;;;;;;;5102251;28;20587;-65
2022/01/17 08:52:15;;;;;;;23.35;4.72;;;;;;;;;;5089595;28;20407;-63
2022/01/17 08:54:41;;;;;;;19.10;5.57;;;;;;;;;;5101465;28;20104;-65
2022/01/17 08:57:08;;;;;;;22.67;5.47;;;;;;;;;;5106730;28;20082;-64
2022/01/17 08:59:57;;;;;;;20.17;4.68;;;;;;;;;;5099197;28;20048;-64
2022/01/17 09:02:23;;;;;;;22.92;4.50;;;;;;;;;;5105341;28;20081;-65
2022/01/17 09:04:50;;;;;;;14.45;4.40;;;;;;;;;;5102273;28;20036;-65
2022/01/17 09:07:16;;;;;;;22.80;4.38;;;;;;;;;;5105001;28;20127;-66
2022/01/17 09:09:43;;;;;;;22.65;5.28;;;;;;;;;;5106651;28;20074;-65
2022/01/17 09:12:11;;;;;;;24.50;5.03;;;;;;;;;;5098038;28;20042;-65
2022/01/17 09:14:37;;;;;;;24.42;5.63;;;;;;;;;;5089586;28;20036;-62
2022/01/17 09:17:04;;;;;;;24.67;4.85;;;;;;;;;;5089486;28;20136;-64
2022/01/17 09:19:31;;;;;;;24.42;5.10;;;;;;;;;;5071366;28;20515;-65
2022/01/17 09:21:58;;;;;;;23.13;5.07;;;;;;;;;;5089470;28;20776;-64
2022/01/17 09:24:25;;;;;;;25.85;4.88;;;;;;;;;;5089013;28;20040;-63
2022/01/17 09:26:57;;;;;;;23.85;4.63;;;;;;;;;;5090722;28;20127;-66
2022/01/17 09:29:23;;;;;;;21.63;4.50;;;;;;;;;;5092730;28;20123;-66
2022/01/17 09:31:50;;;;;;;15.60;4.38;;;;;;;;;;5074421;28;20040;-64
2022/01/17 09:34:19;;;;;;;20.50;5.35;;;;;;;;;;5093030;28;20040;-65
2022/01/17 09:36:45;;;;;;;14.23;4.20;;;;;;;;;;5075018;28;20485;-64
2022/01/17 09:39:11;;;;;;;23.02;4.95;;;;;;;;;;5093038;28;20173;-66
2022/01/17 09:41:37;;;;;;;21.48;4.05;;;;;;;;;;5092708;28;20507;-64
2022/01/17 09:44:07;;;;;;;16.77;5.28;;;;;;;;;;5092817;28;20086;-64
2022/01/17 09:46:39;;;;;;;26.23;4.50;;;;;;;;;;5073937;28;20048;-64
2022/01/17 09:49:23;;;;;;;21.05;4.90;;;;;;;;;;5092090;28;20046;-64
2022/01/17 09:54:21;;;;;;;22.40;4.45;;;;;;;;;;5092570;28;20040;-65
2022/01/17 09:56:51;;;;;;;23.73;4.72;;;;;;;;;;5091769;28;20133;-66
2022/01/17 09:59:17;;;;;;;24.25;4.88;;;;;;;;;;5074761;28;20048;-66
2022/01/17 10:01:44;;;;;;;22.63;4.25;;;;;;;;;;5073869;28;20048;-66
2022/01/17 10:04:19;;;;;;;26.17;5.63;;;;;;;;;;5074767;28;20127;-64
2022/01/17 10:06:55;;;;;;;22.42;5.10;;;;;;;;;;5092991;28;20573;-64
2022/01/17 10:09:21;;;;;;;18.80;5.35;;;;;;;;;;5092710;28;20044;-64
2022/01/17 10:12:08;;;;;;;29.48;5.03;;;;;;;;;;5092356;28;20040;-65
2022/01/17 10:14:42;;;;;;;20.23;5.32;;;;;;;;;;5092651;28;20500;-65
2022/01/17 10:17:13;;;;;;;22.88;5.40;;;;;;;;;;5092964;28;20036;-65
2022/01/17 10:19:40;;;;;;;25.00;4.18;;;;;;;;;;5092700;28;20082;-65
2022/01/17 10:22:12;;;;;;;24.77;4.97;;;;;;;;;;5092061;28;20047;-64
2022/01/17 10:24:56;;;;;;;21.67;4.85;;;;;;;;;;5092475;28;20048;-65
2022/01/17 10:35:39;;;;;;;29.83;5.40;;;;;;;;;;5091862;28;20044;-63
2022/01/17 10:38:35;;;;;;;22.05;4.88;;;;;;;;;;5091719;28;20412;-63
2022/01/17 10:41:08;;;;;;;30.13;5.88;;;;;;;;;;5069929;28;20390;-64
2022/01/17 10:43:36;;;;;;;22.40;4.82;;;;;;;;;;5091067;28;20084;-65
2022/01/17 10:46:04;;;;;;;26.98;4.93;;;;;;;;;;5073583;28;20523;-66
2022/01/17 10:48:43;;;;;;;27.58;5.05;;;;;;;;;;5091503;28;20072;-65
2022/01/17 10:51:22;;;;;;;29.77;5.47;;;;;;;;;;5091009;28;20489;-63
2022/01/17 10:53:50;;;;;;;22.05;5.03;;;;;;;;;;5091423;28;20044;-65
2022/01/17 10:56:16;;;;;;;29.73;5.15;;;;;;;;;;5091527;28;20173;-65
2022/01/17 10:58:42;;;;;;;23.90;5.15;;;;;;;;;;5090928;28;20051;-64
2022/01/17 11:01:16;;;;;;;23.85;5.05;;;;;;;;;;5090851;28;20048;-63
2022/01/17 11:03:46;;;;;;;22.63;5.07;;;;;;;;;;5091154;28;20400;-65
2022/01/17 11:06:13;;;;;;;30.75;6.15;;;;;;;;;;5091115;28;20492;-64
2022/01/17 11:08:41;;;;;;;28.63;5.30;;;;;;;;;;5090935;28;20047;-64
2022/01/17 11:11:10;;;;;;;25.27;5.13;;;;;;;;;;5090874;28;20373;-64
2022/01/17 11:13:43;;;;;;;24.02;4.65;;;;;;;;;;5093007;28;20048;-66
2022/01/17 11:16:24;;;;;;;24.65;5.57;;;;;;;;;;5090476;28;20031;-65
2022/01/17 11:18:58;;;;;;;21.58;5.15;;;;;;;;;;5073781;28;20040;-64
2022/01/17 11:21:25;;;;;;;30.38;6.00;;;;;;;;;;5091132;28;20051;-65
2022/01/17 11:23:51;;;;;;;27.38;6.00;;;;;;;;;;5091451;28;20048;-65
2022/01/17 11:26:18;;;;;;;33.42;6.43;;;;;;;;;;5091580;28;20032;-65
2022/01/17 11:28:44;;;;;;;35.00;6.65;;;;;;;;;;5091992;28;20044;-65
2022/01/17 11:31:13;;;;;;;28.85;5.63;;;;;;;;;;5072991;28;20044;-64
2022/01/17 11:33:40;;;;;;;26.73;5.88;;;;;;;;;;5091613;28;20122;-64
2022/01/17 11:36:07;;;;;;;26.48;5.80;;;;;;;;;;5073269;28;20044;-65
2022/01/17 11:41:50;;;;;;;24.90;5.15;;;;;;;;;;5090308;28;20052;-66
2022/01/17 11:44:16;;;;;;;26.08;5.00;;;;;;;;;;5091378;28;20044;-65
2022/01/17 11:46:51;;;;;;;33.33;6.15;;;;;;;;;;5090802;28;20044;-66
2022/01/17 11:49:28;;;;;;;27.15;5.63;;;;;;;;;;5090828;28;20079;-66
2022/01/17 11:51:54;;;;;;;27.63;6.18;;;;;;;;;;5090360;28;20044;-67
2022/01/17 11:54:21;;;;;;;31.48;7.15;;;;;;;;;;5090994;28;20481;-66
2022/01/17 11:56:55;;;;;;;22.65;6.25;;;;;;;;;;5091190;28;20401;-67
2022/01/17 11:59:41;;;;;;;24.73;6.55;;;;;;;;;;5090343;28;20413;-66
2022/01/17 12:02:13;;;;;;;35.28;6.22;;;;;;;;;;5090172;28;20396;-65
2022/01/17 12:04:39;;;;;;;27.20;5.60;;;;;;;;;;5089996;28;20050;-64
2022/01/17 12:07:05;;;;;;;22.33;5.22;;;;;;;;;;5090416;28;20291;-65
2022/01/17 12:09:31;;;;;;;30.10;6.57;;;;;;;;;;5089972;28;20086;-65
2022/01/17 12:12:03;;;;;;;28.60;5.82;;;;;;;;;;5092687;28;20040;-65
2022/01/17 12:14:32;;;;;;;32.28;7.15;;;;;;;;;;5094509;28;20042;-66
2022/01/17 12:17:18;;;;;;;26.17;5.82;;;;;;;;;;5094817;28;20054;-66
2022/01/17 12:20:02;;;;;;;34.33;6.60;;;;;;;;;;5093860;28;20408;-65
2022/01/17 12:22:28;;;;;;;25.00;5.97;;;;;;;;;;5102410;28;20036;-66
2022/01/17 12:24:54;;;;;;;28.52;7.40;;;;;;;;;;5094659;28;20051;-66
2022/01/17 12:27:22;;;;;;;26.10;5.80;;;;;;;;;;5094405;28;20040;-66
2022/01/17 12:29:51;;;;;;;26.45;5.75;;;;;;;;;;5075674;28;20040;-66
2022/01/17 12:32:20;;;;;;;24.55;5.72;;;;;;;;;;5094059;28;20148;-66
2022/01/17 12:34:46;;;;;;;21.33;5.72;;;;;;;;;;5094089;28;20082;-65
2022/01/17 12:37:31;;;;;;;28.00;5.75;;;;;;;;;;5094420;28;20032;-65
2022/01/17 12:40:16;;;;;;;23.90;5.43;;;;;;;;;;5076084;28;20117;-67
2022/01/17 12:42:48;;;;;;;24.48;4.88;;;;;;;;;;5093688;28;20493;-68
2022/01/17 12:45:18;;;;;;;24.73;5.28;;;;;;;;;;5093614;28;20044;-67
2022/01/17 12:47:46;;;;;;;25.35;5.35;;;;;;;;;;5093918;28;20436;-66
2022/01/17 12:50:12;;;;;;;27.55;6.13;;;;;;;;;;5093965;28;20044;-66
2022/01/17 12:52:38;;;;;;;29.20;6.18;;;;;;;;;;5092912;28;20051;-66
2022/01/17 12:55:04;;;;;;;29.33;5.57;;;;;;;;;;5093479;28;20043;-67
2022/01/17 12:57:30;;;;;;;29.35;6.28;;;;;;;;;;5093716;28;20047;-67
2022/01/17 12:59:57;;;;;;;19.58;5.45;;;;;;;;;;5093479;28;20040;-66
2022/01/17 13:02:25;;;;;;;26.27;6.13;;;;;;;;;;5093317;28;20062;-65
2022/01/17 13:04:55;;;;;;;27.65;5.75;;;;;;;;;;5093317;28;20040;-66
2022/01/17 13:07:21;;;;;;;19.38;5.40;;;;;;;;;;5093387;28;20542;-65
2022/01/17 13:09:47;;;;;;;24.33;6.38;;;;;;;;;;5093462;28;20119;-64
2022/01/17 13:12:13;;;;;;;22.30;5.10;;;;;;;;;;5092766;28;20055;-63
2022/01/17 13:14:41;;;;;;;22.05;5.72;;;;;;;;;;5093183;28;20036;-64
2022/01/17 13:17:07;;;;;;;21.85;4.93;;;;;;;;;;5093062;28;20177;-63
2022/01/17 13:19:36;;;;;;;18.23;4.78;;;;;;;;;;5093838;28;20046;-66
2022/01/17 13:22:03;;;;;;;26.27;5.30;;;;;;;;;;5092515;28;20055;-64
2022/01/17 13:24:36;;;;;;;19.35;5.82;;;;;;;;;;5093325;28;20266;-65
2022/01/17 13:27:09;;;;;;;24.38;5.22;;;;;;;;;;5093440;28;20071;-66
2022/01/17 13:29:43;;;;;;;22.55;5.63;;;;;;;;;;5075692;28;20111;-66
2022/01/17 13:32:11;;;;;;;23.42;4.85;;;;;;;;;;5074857;28;20274;-66
2022/01/17 13:34:38;;;;;;;19.88;5.40;;;;;;;;;;5093015;28;20153;-65
2022/01/17 13:37:05;;;;;;;23.98;5.60;;;;;;;;;;5092993;28;20047;-64
2022/01/17 13:39:31;;;;;;;23.48;5.20;;;;;;;;;;5092932;28;20040;-65
2022/01/17 13:42:01;;;;;;;20.58;5.07;;;;;;;;;;5092509;28;20460;-65
2022/01/17 13:44:39;;;;;;;32.28;6.35;;;;;;;;;;5092550;28;20489;-64
2022/01/17 13:47:05;;;;;;;25.77;5.03;;;;;;;;;;5092642;28;20051;-64
2022/01/17 13:49:36;;;;;;;23.08;5.32;;;;;;;;;;5092525;28;20040;-64
2022/01/17 13:52:03;;;;;;;20.30;5.18;;;;;;;;;;5092221;28;20124;-64
2022/01/17 13:54:40;;;;;;;20.05;5.05;;;;;;;;;;5092145;28;20051;-65
2022/01/17 13:57:13;;;;;;;24.92;5.05;;;;;;;;;;5074304;28;20054;-64
2022/01/17 13:59:39;;;;;;;22.52;4.57;;;;;;;;;;5092490;28;20047;-64
2022/01/17 14:02:15;;;;;;;21.00;5.00;;;;;;;;;;5091987;28;20119;-64
2022/01/17 14:04:41;;;;;;;22.85;5.30;;;;;;;;;;5093153;28;20119;-64
2022/01/17 14:07:21;;;;;;;23.80;4.65;;;;;;;;;;5073732;28;20062;-64
2022/01/17 14:09:52;;;;;;;21.63;5.30;;;;;;;;;;5091787;28;20032;-66
2022/01/17 14:12:19;;;;;;;22.92;5.10;;;;;;;;;;5057108;28;20036;-66
2022/01/17 14:14:50;;;;;;;18.63;4.38;;;;;;;;;;5092204;28;20481;-66
2022/01/17 14:17:29;;;;;;;22.63;4.78;;;;;;;;;;5092459;28;20066;-64
2022/01/17 14:20:12;;;;;;;17.63;4.47;;;;;;;;;;5074132;28;20457;-64
2022/01/17 14:22:48;;;;;;;22.08;5.43;;;;;;;;;;5091658;28;20048;-65
2022/01/17 14:25:23;;;;;;;30.08;6.35;;;;;;;;;;5092468;28;20050;-65
2022/01/17 14:27:59;;;;;;;19.92;4.72;;;;;;;;;;5092362;28;20036;-66
2022/01/17 14:30:27;;;;;;;23.95;4.63;;;;;;;;;;5091885;28;20046;-66
2022/01/17 14:33:08;;;;;;;19.95;4.80;;;;;;;;;;5090764;28;20051;-63
2022/01/17 14:35:35;;;;;;;25.35;4.97;;;;;;;;;;5092049;28;20043;-66
2022/01/17 14:38:01;;;;;;;18.25;4.63;;;;;;;;;;5091457;28;20040;-66
2022/01/17 14:40:31;;;;;;;25.25;5.25;;;;;;;;;;5091625;28;20506;-66
2022/01/17 14:43:09;;;;;;;28.30;5.60;;;;;;;;;;5091107;28;20035;-65
2022/01/17 14:45:35;;;;;;;24.15;5.50;;;;;;;;;;5091639;28;20075;-67
2022/01/17 14:48:01;;;;;;;26.10;6.15;;;;;;;;;;5091686;28;20043;-66
2022/01/17 14:50:28;;;;;;;25.20;5.88;;;;;;;;;;5091351;28;20040;-66
2022/01/17 14:52:55;;;;;;;28.73;6.20;;;;;;;;;;5090869;28;20071;-66
2022/01/17 14:59:24;;;;;;;20.88;5.35;;;;;;;;;;5091227;28;20551;-66
2022/01/17 15:01:14;;;;;;;21.23;5.45;;;;;;;;;;5090801;28;20413;-66
2022/01/17 15:03:41;;;;;;;22.55;4.45;;;;;;;;;;5073319;28;20400;-67
2022/01/17 15:06:09;;;;;;;24.73;5.60;;;;;;;;;;5090763;28;20421;-65
2022/01/17 15:08:35;;;;;;;20.42;4.45;;;;;;;;;;5091250;28;20115;-66
2022/01/17 15:11:01;;;;;;;16.02;5.15;;;;;;;;;;5090693;28;20111;-65